Time;durP1;ratioP1;P1;durP2;ratioP2;P2;SDS_P1;SDS_P2;PMS_P1;PMS_P2;Temp;Humidity;BMP_temperature;BMP_pressure;BME280_temperature;BME280_humidity;BME280_pressure;Samples;Min_cycle;Max_cycle;Signal;HPM_P1;HPM_P2
2022/03/24 00:00:03;;;;;;;67.08;45.33;;;;;;;4.40;62.20;100876.08;1777177;79;21027;-69
2022/03/24 00:02:32;;;;;;;74.40;48.73;;;;;;;4.36;62.28;100877.52;1778094;79;20979;-69
2022/03/24 00:04:59;;;;;;;71.45;47.58;;;;;;;4.33;62.39;100869.48;1773994;79;20991;-69
2022/03/24 00:07:28;;;;;;;80.70;48.58;;;;;;;4.30;62.59;100864.61;1776553;80;21003;-69
2022/03/24 00:09:55;;;;;;;73.65;47.33;;;;;;;4.28;62.75;100869.31;1776741;79;21825;-69
2022/03/24 00:12:22;;;;;;;74.55;49.50;;;;;;;4.29;62.90;100862.19;1772923;80;21062;-69
2022/03/24 00:14:51;;;;;;;77.75;48.75;;;;;;;4.29;63.02;100856.38;1754356;80;21067;-70
2022/03/24 00:17:19;;;;;;;71.05;46.95;;;;;;;4.29;63.04;100857.70;1777254;80;20968;-69
2022/03/24 00:19:46;;;;;;;66.65;44.80;;;;;;;4.28;63.06;100854.77;1776882;79;21109;-69
2022/03/24 00:22:14;;;;;;;75.75;48.20;;;;;;;4.25;63.13;100853.86;1756918;80;21638;-69
2022/03/24 00:24:42;;;;;;;73.40;48.00;;;;;;;4.25;63.16;100849.09;1768577;80;21085;-69
2022/03/24 00:27:11;;;;;;;72.95;50.23;;;;;;;4.21;63.24;100839.41;1761189;80;21094;-69
2022/03/24 00:29:39;;;;;;;73.20;47.55;;;;;;;4.19;63.27;100837.50;1750071;80;20987;-69
2022/03/24 00:32:07;;;;;;;76.75;50.15;;;;;;;4.19;63.43;100840.14;1774877;80;21062;-69
2022/03/24 00:34:35;;;;;;;77.20;50.98;;;;;;;4.18;63.47;100838.53;1776982;80;21204;-69
2022/03/24 00:37:03;;;;;;;67.12;44.50;;;;;;;4.18;63.57;100825.31;1775767;79;21077;-70
2022/03/24 00:39:33;;;;;;;71.07;46.75;;;;;;;4.18;63.59;100821.34;1762623;80;21070;-70
2022/03/24 00:42:02;;;;;;;71.47;46.77;;;;;;;4.17;63.52;100821.02;1773775;80;21106;-68
2022/03/24 00:44:30;;;;;;;71.15;45.17;;;;;;;4.16;63.59;100820.73;1768420;80;21043;-68
2022/03/24 00:46:58;;;;;;;72.40;47.15;;;;;;;4.13;63.54;100814.53;1771341;79;21130;-69
2022/03/24 00:49:26;;;;;;;73.97;46.18;;;;;;;4.11;63.55;100810.76;1792831;79;21045;-69
2022/03/24 00:51:54;;;;;;;73.17;47.67;;;;;;;4.07;63.59;100805.59;1791164;79;20992;-69
2022/03/24 00:54:21;;;;;;;72.00;47.48;;;;;;;4.04;63.63;100800.72;1781739;79;21022;-70
2022/03/24 00:56:50;;;;;;;79.97;50.48;;;;;;;4.02;63.61;100796.69;1745505;79;21569;-68
2022/03/24 00:59:17;;;;;;;71.60;47.20;;;;;;;3.98;63.64;100797.09;1741695;80;21817;-69
2022/03/24 01:01:46;;;;;;;75.57;47.88;;;;;;;3.95;63.60;100797.51;1740184;80;21601;-69
2022/03/24 01:04:13;;;;;;;73.62;47.58;;;;;;;3.92;63.59;100789.19;1771332;79;21042;-69
2022/03/24 01:06:41;;;;;;;74.75;47.65;;;;;;;3.89;63.64;100779.03;1776563;80;21089;-68
2022/03/24 01:09:10;;;;;;;73.17;47.25;;;;;;;3.87;63.70;100775.77;1765191;80;21066;-69
2022/03/24 01:11:37;;;;;;;72.10;47.43;;;;;;;3.86;63.75;100770.19;1761765;80;21449;-69
2022/03/24 01:14:07;;;;;;;69.10;46.70;;;;;;;3.82;63.81;100765.83;1776227;79;21004;-68
2022/03/24 01:16:36;;;;;;;69.55;46.37;;;;;;;3.79;63.88;100759.64;1771371;80;21240;-69
2022/03/24 01:19:05;;;;;;;67.75;44.90;;;;;;;3.79;63.94;100757.00;1777480;80;20996;-69
2022/03/24 01:21:36;;;;;;;65.95;44.18;;;;;;;3.78;63.98;100754.03;1778490;79;21050;-70
2022/03/24 01:24:04;;;;;;;72.82;46.23;;;;;;;3.76;64.00;100754.25;1776935;80;21522;-69
2022/03/24 01:26:32;;;;;;;67.75;46.23;;;;;;;3.72;64.06;100746.96;1754484;80;21609;-70
2022/03/24 01:29:00;;;;;;;71.00;46.02;;;;;;;3.70;64.10;100748.98;1782569;79;20959;-69
2022/03/24 01:31:28;;;;;;;69.25;46.50;;;;;;;3.65;64.15;100741.69;1743876;80;21008;-68
2022/03/24 01:33:55;;;;;;;70.30;46.08;;;;;;;3.63;64.22;100743.72;1758020;80;21027;-70
2022/03/24 01:36:22;;;;;;;70.20;45.40;;;;;;;3.61;64.29;100733.05;1773131;80;21188;-69
2022/03/24 01:38:49;;;;;;;67.80;45.20;;;;;;;3.57;64.32;100730.02;1775688;80;21002;-69
2022/03/24 01:41:18;;;;;;;68.87;46.13;;;;;;;3.52;64.38;100731.96;1775863;80;21165;-69
2022/03/24 01:43:45;;;;;;;70.17;47.40;;;;;;;3.50;64.49;100723.94;1749423;79;21105;-69
2022/03/24 01:46:22;;;;;;;70.85;47.67;;;;;;;3.48;64.58;100729.92;1797799;79;20979;-69
2022/03/24 01:48:50;;;;;;;72.03;48.55;;;;;;;3.46;64.71;100727.50;1766289;80;21142;-69
2022/03/24 01:51:18;;;;;;;69.00;46.70;;;;;;;3.47;64.77;100729.63;1775308;79;21119;-69
2022/03/24 01:53:45;;;;;;;73.52;48.73;;;;;;;3.46;64.82;100719.58;1769190;80;21172;-69
2022/03/24 01:56:13;;;;;;;73.57;46.53;;;;;;;3.49;64.86;100713.08;1776551;80;21090;-68
2022/03/24 01:58:40;;;;;;;78.25;50.70;;;;;;;3.50;64.86;100708.89;1790014;79;20995;-68
2022/03/24 02:01:35;;;;;;;78.75;50.52;;;;;;;3.51;64.82;100709.19;1690007;80;21110;-68
2022/03/24 02:04:04;;;;;;;71.70;46.60;;;;;;;3.51;64.79;100705.74;1775228;80;21042;-69
2022/03/24 02:06:34;;;;;;;76.50;48.50;;;;;;;3.50;64.78;100703.61;1780454;79;21497;-69
2022/03/24 02:09:03;;;;;;;68.52;47.48;;;;;;;3.49;64.73;100703.32;1767767;80;20996;-68
2022/03/24 02:11:32;;;;;;;72.95;47.90;;;;;;;3.49;64.70;100702.52;1763483;80;21015;-69
2022/03/24 02:14:00;;;;;;;71.22;47.70;;;;;;;3.46;64.63;100695.81;1776487;80;21290;-69
2022/03/24 02:16:36;;;;;;;74.50;49.70;;;;;;;3.42;64.64;100698.56;1778591;79;21066;-68
2022/03/24 02:19:16;;;;;;;78.02;51.15;;;;;;;3.40;64.68;100691.34;1776676;80;21490;-68
2022/03/24 02:21:46;;;;;;;76.07;49.83;;;;;;;3.38;64.65;100688.61;1782460;79;20991;-68
2022/03/24 02:24:16;;;;;;;75.90;50.05;;;;;;;3.35;64.62;100695.10;1760520;79;21039;-69
2022/03/24 02:26:45;;;;;;;70.75;48.80;;;;;;;3.33;64.61;100691.06;1770355;80;21233;-68
2022/03/24 02:29:15;;;;;;;76.20;49.83;;;;;;;3.28;64.57;100691.67;1776076;80;21030;-68
2022/03/24 02:31:48;;;;;;;71.55;47.53;;;;;;;3.24;64.56;100689.95;1774663;79;21459;-68
2022/03/24 02:34:37;;;;;;;75.03;49.85;;;;;;;3.21;64.63;100685.08;1775403;80;21066;-69
2022/03/24 02:37:07;;;;;;;76.22;48.28;;;;;;;3.20;64.61;100679.50;1770342;80;21070;-69
2022/03/24 02:39:42;;;;;;;66.70;47.35;;;;;;;3.18;64.64;100686.80;1758577;80;21220;-69
2022/03/24 02:42:18;;;;;;;69.85;48.05;;;;;;;3.16;64.64;100678.30;1775487;79;20983;-69
2022/03/24 02:44:51;;;;;;;78.87;48.45;;;;;;;3.13;64.68;100676.06;1764402;80;21456;-68
2022/03/24 02:47:20;;;;;;;68.92;47.60;;;;;;;3.13;64.67;100673.94;1774093;80;21042;-68
2022/03/24 02:49:50;;;;;;;68.97;47.17;;;;;;;3.09;64.68;100672.19;1776718;80;20979;-69
2022/03/24 02:52:17;;;;;;;68.40;48.60;;;;;;;3.09;64.70;100671.38;1776580;79;21159;-69
2022/03/24 02:54:44;;;;;;;69.72;46.80;;;;;;;3.07;64.75;100661.05;1763193;80;21043;-68
2022/03/24 02:57:12;;;;;;;64.80;45.30;;;;;;;3.07;64.81;100662.88;1769109;80;21530;-68
2022/03/24 02:59:40;;;;;;;70.78;47.53;;;;;;;3.05;64.82;100659.91;1771746;80;21109;-68
2022/03/24 03:02:13;;;;;;;70.80;46.65;;;;;;;3.04;64.85;100658.30;1768534;79;21055;-68
2022/03/24 03:04:43;;;;;;;75.42;47.85;;;;;;;3.05;64.88;100660.42;1772597;80;21126;-68
2022/03/24 03:07:10;;;;;;;69.40;46.85;;;;;;;3.03;64.86;100654.05;1756866;80;21014;-69
2022/03/24 03:09:39;;;;;;;75.70;48.28;;;;;;;3.04;64.80;100654.86;1773072;80;21569;-69
2022/03/24 03:12:11;;;;;;;67.47;46.10;;;;;;;3.00;64.75;100655.77;1758333;80;21042;-68
2022/03/24 03:14:39;;;;;;;;;;;;;;;2.99;64.81;100646.22;1778377;80;21655;-69
2022/03/24 03:17:08;;;;;;;74.20;46.70;;;;;;;2.98;64.78;100636.69;1765128;79;21137;-69
2022/03/24 03:19:36;;;;;;;71.33;47.00;;;;;;;2.98;64.77;100633.24;1774912;79;21625;-69
2022/03/24 03:22:05;;;;;;;76.65;48.20;;;;;;;2.91;64.70;100650.39;1775785;80;21039;-69
2022/03/24 03:24:33;;;;;;;77.15;48.13;;;;;;;2.84;64.75;100644.83;1766557;79;21202;-69
2022/03/24 03:27:00;;;;;;;67.20;45.25;;;;;;;2.81;64.89;100642.09;1743719;82;21105;-68
2022/03/24 03:29:29;;;;;;;72.32;47.85;;;;;;;2.81;65.00;100637.62;1717771;81;21046;-69
2022/03/24 03:31:57;;;;;;;73.62;48.40;;;;;;;2.78;64.97;100638.53;1740557;81;21062;-69
2022/03/24 03:34:27;;;;;;;70.42;47.08;;;;;;;2.75;64.99;100633.15;1725379;81;21087;-69
2022/03/24 03:36:54;;;;;;;68.60;45.90;;;;;;;2.74;64.99;100634.17;1720176;82;21015;-69
2022/03/24 03:39:23;;;;;;;65.80;44.30;;;;;;;2.75;64.96;100641.06;1738921;82;21022;-69
2022/03/24 03:41:50;;;;;;;67.80;46.73;;;;;;;2.75;64.97;100638.42;1699719;83;21159;-69
2022/03/24 03:44:20;;;;;;;70.80;48.15;;;;;;;2.76;64.97;100633.95;1713002;83;21527;-69
2022/03/24 03:46:49;;;;;;;67.97;47.23;;;;;;;2.76;64.97;100636.11;1701546;83;21066;-69
2022/03/24 03:49:18;;;;;;;63.02;45.30;;;;;;;2.75;64.99;100631.83;1712792;83;21570;-69
2022/03/24 03:51:45;;;;;;;70.08;47.48;;;;;;;2.75;65.00;100624.44;1769310;79;21046;-68
2022/03/24 03:54:15;;;;;;;66.72;46.50;;;;;;;2.75;65.05;100627.07;1776001;80;21123;-68
2022/03/24 03:56:44;;;;;;;67.40;45.92;;;;;;;2.74;65.12;100619.67;1775583;80;21101;-69
2022/03/24 03:59:12;;;;;;;78.90;48.13;;;;;;;2.76;65.19;100619.45;1762348;80;21059;-69
2022/03/24 04:01:41;;;;;;;68.72;45.88;;;;;;;2.65;65.51;100622.20;1767966;79;22216;-68
2022/03/24 04:04:12;;;;;;;65.75;44.75;;;;;;;2.66;65.68;100623.00;1748267;80;20975;-68
2022/03/24 04:06:40;;;;;;;71.82;47.05;;;;;;;2.66;65.77;100616.41;1752109;79;21596;-68
2022/03/24 04:09:09;;;;;;;67.03;44.38;;;;;;;2.68;65.80;100615.72;1771150;79;21439;-69
2022/03/24 04:11:38;;;;;;;64.30;44.65;;;;;;;2.69;65.82;100617.33;1776194;80;20976;-69
2022/03/24 04:14:07;;;;;;;62.65;43.58;;;;;;;2.68;65.79;100606.48;1746269;80;21026;-68
2022/03/24 04:16:34;;;;;;;66.20;42.93;;;;;;;2.66;65.91;100619.86;1768462;80;21446;-69
2022/03/24 04:19:05;;;;;;;68.30;45.00;;;;;;;2.63;66.29;100628.17;1768868;79;21028;-69
2022/03/24 04:21:32;;;;;;;69.58;46.42;;;;;;;2.82;66.36;100619.95;1739948;81;21097;-68
2022/03/24 04:23:59;;;;;;;71.28;48.33;;;;;;;2.87;66.70;100625.45;1736000;81;21002;-68
2022/03/24 04:26:27;;;;;;;66.07;44.83;;;;;;;2.96;67.06;100622.07;1748215;80;20988;-68
2022/03/24 04:28:54;;;;;;;69.25;46.08;;;;;;;2.95;67.54;100615.18;1772066;79;21114;-68
2022/03/24 04:31:24;;;;;;;63.78;43.68;;;;;;;2.97;67.90;100615.28;1772410;80;21137;-68
2022/03/24 04:33:53;;;;;;;60.33;43.23;;;;;;;3.07;68.09;100612.23;1775387;79;21059;-68
2022/03/24 04:36:21;;;;;;;59.35;41.90;;;;;;;3.26;67.97;100615.84;1770805;80;21039;-68
2022/03/24 04:38:49;;;;;;;60.95;42.00;;;;;;;3.37;67.87;100613.87;1754766;79;20995;-69
2022/03/24 04:41:16;;;;;;;57.83;38.92;;;;;;;3.50;67.80;100621.75;1750067;80;20982;-68
2022/03/24 04:43:44;;;;;;;54.45;36.88;;;;;;;3.64;67.61;100619.06;1775014;80;21156;-68
2022/03/24 04:46:16;;;;;;;54.38;36.80;;;;;;;3.76;67.13;100627.95;1770607;79;21526;-68
2022/03/24 04:48:44;;;;;;;53.98;37.35;;;;;;;3.92;66.61;100625.34;1775525;80;21023;-68
2022/03/24 04:51:14;;;;;;;54.25;36.45;;;;;;;4.10;65.87;100628.59;1775551;80;21071;-69
2022/03/24 04:53:41;;;;;;;55.23;38.05;;;;;;;4.29;64.91;100631.62;1772321;80;22104;-69
2022/03/24 04:56:10;;;;;;;60.63;39.98;;;;;;;4.49;64.11;100631.48;1768352;80;21213;-69
2022/03/24 04:58:37;;;;;;;64.05;43.85;;;;;;;4.67;63.39;100622.80;1765238;79;21070;-69
2022/03/24 05:01:05;;;;;;;61.28;44.35;;;;;;;4.85;62.71;100628.14;1771844;80;21124;-69
2022/03/24 05:03:33;;;;;;;64.37;43.50;;;;;;;5.01;62.00;100628.11;1776416;79;21015;-68
2022/03/24 05:06:00;;;;;;;64.70;42.65;;;;;;;5.18;61.27;100623.05;1776703;80;22201;-69
2022/03/24 05:08:31;;;;;;;65.42;43.70;;;;;;;5.36;59.91;100628.37;1765900;80;21011;-71
2022/03/24 05:10:58;;;;;;;64.03;41.63;;;;;;;5.62;58.80;100631.72;1750589;80;21038;-70
2022/03/24 05:13:27;;;;;;;62.38;42.73;;;;;;;5.87;57.57;100631.11;1776009;80;21045;-70
2022/03/24 05:16:00;;;;;;;65.52;42.67;;;;;;;6.13;56.08;100645.08;1774453;80;21022;-69
2022/03/24 05:18:24;;;;;;;63.73;42.10;;;;;;;6.38;55.11;100628.19;1775544;80;21023;-69
2022/03/24 05:20:53;;;;;;;70.83;44.48;;;;;;;6.61;54.49;100633.54;1775726;80;21042;-70
2022/03/24 05:23:23;;;;;;;69.90;43.60;;;;;;;6.80;53.30;100644.88;1773688;79;20972;-70
2022/03/24 05:25:55;;;;;;;77.95;43.30;;;;;;;6.99;52.98;100629.66;1802840;79;21516;-69
2022/03/24 05:28:23;;;;;;;70.87;42.38;;;;;;;7.17;52.19;100636.19;1755869;80;21102;-69
2022/03/24 05:30:50;;;;;;;74.75;47.10;;;;;;;7.29;51.21;100637.48;1750026;79;20978;-70
2022/03/24 05:33:19;;;;;;;76.97;46.42;;;;;;;7.42;50.95;100627.13;1762869;79;21140;-69
2022/03/24 05:35:47;;;;;;;72.72;45.98;;;;;;;7.55;50.42;100634.84;1758441;80;21051;-68
2022/03/24 05:38:15;;;;;;;79.07;47.65;;;;;;;7.64;49.86;100628.66;1737731;82;21051;-70
2022/03/24 05:40:42;;;;;;;75.15;43.78;;;;;;;7.74;49.64;100639.48;1770877;79;21050;-70
2022/03/24 05:43:10;;;;;;;73.02;45.67;;;;;;;7.82;49.09;100627.66;1754325;80;21181;-70
2022/03/24 05:45:37;;;;;;;76.10;47.58;;;;;;;7.89;48.84;100631.78;1764394;80;21796;-69
2022/03/24 05:48:06;;;;;;;71.37;44.75;;;;;;;7.95;48.60;100630.03;1776555;80;21450;-68
2022/03/24 05:50:48;;;;;;;75.35;45.48;;;;;;;8.03;48.20;100646.96;1770901;80;21015;-69
2022/03/24 05:53:18;;;;;;;84.30;45.95;;;;;;;8.11;47.54;100633.80;1775547;80;21022;-69
2022/03/24 05:55:46;;;;;;;73.92;44.50;;;;;;;8.18;47.60;100635.25;1776319;80;21041;-70
2022/03/24 05:58:13;;;;;;;69.72;43.17;;;;;;;8.23;47.15;100630.56;1765903;79;21129;-70
2022/03/24 06:00:41;;;;;;;70.32;46.48;;;;;;;8.29;46.96;100640.25;1775543;80;21649;-69
2022/03/24 06:03:10;;;;;;;74.10;45.30;;;;;;;8.34;46.67;100644.84;1768529;80;21081;-70
2022/03/24 06:05:40;;;;;;;70.65;44.58;;;;;;;8.41;46.52;100633.55;1775578;79;20987;-70
2022/03/24 06:08:07;;;;;;;73.90;45.95;;;;;;;8.47;46.32;100625.94;1776247;79;21067;-70
2022/03/24 06:10:36;;;;;;;70.67;44.38;;;;;;;8.49;45.82;100629.17;1789647;79;21518;-70
2022/03/24 06:13:03;;;;;;;64.35;40.80;;;;;;;8.53;45.91;100642.28;1795567;79;21166;-70
2022/03/24 06:15:34;;;;;;;65.32;43.50;;;;;;;8.56;45.86;100630.34;1764092;80;22203;-69
2022/03/24 06:18:04;;;;;;;71.07;42.85;;;;;;;8.59;45.66;100638.66;1772621;80;21109;-70
2022/03/24 06:20:31;;;;;;;58.60;37.67;;;;;;;8.63;45.48;100660.28;1776443;80;20983;-71
2022/03/24 06:22:59;;;;;;;61.70;39.78;;;;;;;8.64;45.09;100641.39;1774825;80;21187;-69
2022/03/24 06:25:26;;;;;;;60.00;37.45;;;;;;;8.67;45.15;100649.42;1767523;80;21006;-71
2022/03/24 06:27:55;;;;;;;51.37;34.65;;;;;;;8.71;45.12;100648.41;1776324;80;20998;-70
2022/03/24 06:30:24;;;;;;;55.52;35.85;;;;;;;8.75;45.09;100641.02;1776865;80;22126;-69
2022/03/24 06:32:52;;;;;;;54.23;34.18;;;;;;;8.81;44.93;100658.69;1775973;80;21066;-70
2022/03/24 06:35:24;;;;;;;54.55;35.03;;;;;;;8.83;44.85;100653.94;1766831;79;21106;-70
2022/03/24 06:37:53;;;;;;;50.35;31.57;;;;;;;8.88;44.87;100649.20;1751101;80;20995;-69
2022/03/24 06:40:22;;;;;;;40.80;28.42;;;;;;;8.91;44.90;100644.72;1767355;80;21066;-71
2022/03/24 06:42:50;;;;;;;47.65;29.23;;;;;;;8.98;44.61;100649.88;1775775;79;20994;-72
2022/03/24 06:45:18;;;;;;;39.35;28.50;;;;;;;9.01;44.19;100644.88;1776691;80;21018;-73
2022/03/24 06:47:46;;;;;;;38.30;25.35;;;;;;;9.03;44.11;100638.78;1775820;80;21494;-72
2022/03/24 06:50:14;;;;;;;35.48;24.85;;;;;;;9.07;43.73;100653.23;1776549;80;21094;-72
2022/03/24 06:52:43;;;;;;;39.40;26.42;;;;;;;9.09;43.68;100647.14;1768671;79;21060;-71
2022/03/24 06:55:13;;;;;;;40.73;25.95;;;;;;;9.12;43.88;100658.64;1648029;82;21116;-73
2022/03/24 06:57:41;;;;;;;37.75;24.67;;;;;;;9.17;43.84;100657.90;1600647;88;21063;-73
2022/03/24 07:00:13;;;;;;;38.00;25.40;;;;;;;9.26;43.98;100659.62;1638483;86;21169;-71
2022/03/24 07:02:41;;;;;;;38.25;25.55;;;;;;;9.36;43.98;100661.09;1626383;86;21181;-72
2022/03/24 07:05:08;;;;;;;35.88;24.90;;;;;;;9.42;43.32;100653.45;1623829;88;21152;-70
2022/03/24 07:07:36;;;;;;;33.25;23.55;;;;;;;9.42;43.08;100668.65;1623850;88;21539;-71
2022/03/24 07:10:04;;;;;;;31.50;23.38;;;;;;;9.43;42.93;100648.39;1622387;86;21024;-71
2022/03/24 07:12:32;;;;;;;36.75;24.35;;;;;;;9.45;42.96;100652.16;1624050;88;21214;-72
2022/03/24 07:14:59;;;;;;;31.70;24.60;;;;;;;9.44;43.11;100657.19;1627325;86;21163;-71
2022/03/24 07:17:26;;;;;;;34.48;23.77;;;;;;;9.48;42.87;100652.47;1625058;88;21040;-71
2022/03/24 07:19:56;;;;;;;31.17;21.85;;;;;;;9.50;42.67;100630.34;1624144;86;21126;-69
2022/03/24 07:22:23;;;;;;;32.42;22.27;;;;;;;9.54;42.64;100649.32;1630922;86;21112;-70
2022/03/24 07:24:54;;;;;;;32.85;23.52;;;;;;;9.60;42.58;100649.14;1646636;84;21524;-70
2022/03/24 07:27:21;;;;;;;32.73;23.38;;;;;;;9.66;42.54;100654.02;1661430;84;21072;-70
2022/03/24 07:29:50;;;;;;;28.83;21.20;;;;;;;9.75;42.41;100659.20;1665571;84;21095;-70
2022/03/24 07:32:17;;;;;;;26.73;18.52;;;;;;;9.80;42.11;100651.77;1667484;84;21088;-71
2022/03/24 07:34:44;;;;;;;27.77;19.50;;;;;;;9.86;42.04;100657.45;1661943;84;21106;-70
2022/03/24 07:37:12;;;;;;;29.10;19.48;;;;;;;9.89;41.69;100648.14;1690114;83;21300;-70
2022/03/24 07:39:40;;;;;;;26.97;20.10;;;;;;;9.95;41.34;100669.30;1682214;83;21124;-70
2022/03/24 07:42:09;;;;;;;33.20;20.37;;;;;;;10.01;41.09;100651.49;1667363;84;21024;-72
2022/03/24 07:44:37;;;;;;;31.20;22.52;;;;;;;10.04;40.84;100654.47;1662410;83;21246;-71
2022/03/24 07:47:08;;;;;;;32.03;22.87;;;;;;;10.10;40.94;100650.80;1676615;84;21047;-70
2022/03/24 07:49:35;;;;;;;35.00;24.00;;;;;;;10.18;40.90;100648.73;1671844;84;21162;-70
2022/03/24 07:52:11;;;;;;;38.63;24.85;;;;;;;10.24;40.64;100640.52;1662818;84;21020;-70
2022/03/24 07:54:56;;;;;;;36.10;24.07;;;;;;;10.28;40.43;100644.31;1662960;84;21083;-70
2022/03/24 07:57:27;;;;;;;37.55;24.47;;;;;;;10.33;40.30;100638.20;1633018;87;21035;-69
2022/03/24 07:59:55;;;;;;;35.73;23.73;;;;;;;10.39;40.53;100644.41;1624284;87;21113;-71
2022/03/24 08:02:22;;;;;;;35.48;23.07;;;;;;;10.47;40.11;100638.62;1629176;87;21116;-71
2022/03/24 08:04:52;;;;;;;33.92;22.52;;;;;;;10.53;40.03;100640.28;1625910;88;21092;-70
2022/03/24 08:07:21;;;;;;;37.75;22.62;;;;;;;10.57;39.43;100648.05;1643848;87;21083;-72
2022/03/24 08:09:50;;;;;;;33.58;22.75;;;;;;;10.56;39.09;100639.23;1630756;87;21107;-70
2022/03/24 08:12:18;;;;;;;36.28;23.30;;;;;;;10.56;39.26;100636.56;1626147;88;21032;-70
2022/03/24 08:14:46;;;;;;;33.42;22.50;;;;;;;10.61;39.07;100637.66;1625921;88;21216;-71
2022/03/24 08:17:14;;;;;;;33.60;22.37;;;;;;;10.64;39.00;100640.63;1624714;88;21144;-72
2022/03/24 08:19:41;;;;;;;36.17;23.20;;;;;;;10.68;38.92;100628.36;1626065;88;21849;-72
2022/03/24 08:22:09;;;;;;;42.20;23.25;;;;;;;10.74;39.06;100626.55;1626125;88;21029;-71
2022/03/24 08:24:36;;;;;;;35.00;22.62;;;;;;;10.79;38.76;100631.41;1625904;88;21080;-70
2022/03/24 08:27:04;;;;;;;37.08;23.50;;;;;;;10.86;38.76;100618.33;1626190;88;21141;-71
2022/03/24 08:29:31;;;;;;;34.60;21.90;;;;;;;10.91;38.46;100626.39;1625797;88;20997;-71
2022/03/24 08:32:00;;;;;;;35.70;22.10;;;;;;;10.93;38.36;100620.27;1625810;87;21104;-72
2022/03/24 08:34:31;;;;;;;33.65;20.60;;;;;;;10.96;38.04;100628.58;1625387;88;21017;-70
2022/03/24 08:37:00;;;;;;;33.28;21.23;;;;;;;10.96;37.95;100623.23;1626351;88;21056;-71
2022/03/24 08:39:28;;;;;;;30.68;20.68;;;;;;;11.00;38.03;100621.64;1643927;87;21835;-70
2022/03/24 08:41:55;;;;;;;34.67;20.77;;;;;;;11.07;37.77;100626.77;1626873;86;20949;-69
2022/03/24 08:44:22;;;;;;;30.97;20.12;;;;;;;11.13;37.83;100612.91;1652548;86;21753;-71
2022/03/24 08:46:49;;;;;;;33.75;21.05;;;;;;;11.21;37.57;100623.09;1653069;86;20965;-71
2022/03/24 08:49:16;;;;;;;36.42;21.77;;;;;;;11.32;37.40;100621.27;1653200;86;21104;-70
2022/03/24 08:51:46;;;;;;;30.30;20.40;;;;;;;11.39;37.19;100630.69;1639701;86;20972;-70
2022/03/24 08:54:13;;;;;;;23.30;15.30;;;;;;;11.47;37.50;100627.50;1626175;88;21052;-69
2022/03/24 08:56:42;;;;;;;26.25;15.18;;;;;;;11.51;35.97;100616.55;1629099;87;21492;-70
2022/03/24 08:59:09;;;;;;;25.17;16.15;;;;;;;11.57;35.93;100620.59;1644805;86;21031;-70
2022/03/24 09:01:38;;;;;;;20.75;14.63;;;;;;;11.64;36.06;100625.95;1626785;87;21195;-71
2022/03/24 09:04:05;;;;;;;21.57;13.95;;;;;;;11.68;35.69;100604.83;1626191;88;21211;-70
2022/03/24 09:06:34;;;;;;;20.92;14.68;;;;;;;11.70;35.24;100608.06;1625898;88;21311;-70
2022/03/24 09:09:03;;;;;;;21.02;15.80;;;;;;;11.71;35.24;100608.33;1675602;85;20992;-71
2022/03/24 09:11:32;;;;;;;22.67;16.25;;;;;;;11.70;35.40;100610.20;1677254;85;38226;-71
2022/03/24 09:14:01;;;;;;;21.50;15.75;;;;;;;11.64;35.31;100619.81;1677447;85;20953;-70
2022/03/24 09:16:29;;;;;;;26.37;18.35;;;;;;;11.57;35.61;100601.86;1677395;85;21101;-70
2022/03/24 09:18:57;;;;;;;29.15;19.70;;;;;;;11.55;35.98;100605.33;1676912;85;21463;-70
2022/03/24 09:21:26;;;;;;;25.62;18.55;;;;;;;11.56;35.95;100608.29;1679511;84;21013;-70
2022/03/24 09:23:54;;;;;;;22.10;16.48;;;;;;;11.57;36.48;100604.54;1677496;85;20980;-71
2022/03/24 09:26:23;;;;;;;22.42;16.55;;;;;;;11.60;36.30;100602.14;1676686;85;21012;-71
2022/03/24 09:28:52;;;;;;;22.48;16.97;;;;;;;11.65;35.65;100590.13;1677729;85;21617;-70
2022/03/24 09:31:20;;;;;;;24.07;17.37;;;;;;;11.61;35.70;100622.47;1677407;85;21542;-70
2022/03/24 09:33:47;;;;;;;24.15;16.82;;;;;;;11.58;36.10;100607.48;1677474;85;21092;-70
2022/03/24 09:36:15;;;;;;;23.65;16.87;;;;;;;11.60;35.72;100621.41;1677539;85;21068;-70
2022/03/24 09:38:44;;;;;;;26.17;20.35;;;;;;;11.61;35.77;100604.28;1677605;85;21522;-70
2022/03/24 09:41:13;;;;;;;30.70;21.37;;;;;;;11.63;35.31;100604.83;1677626;85;21253;-70
2022/03/24 09:43:41;;;;;;;27.82;20.77;;;;;;;11.64;35.04;100613.13;1654967;84;21047;-69
2022/03/24 09:46:08;;;;;;;24.20;17.45;;;;;;;11.62;35.18;100617.95;1650011;86;21027;-71
2022/03/24 09:48:36;;;;;;;27.48;19.70;;;;;;;11.63;34.82;100607.51;1664305;85;21044;-70
2022/03/24 09:51:05;;;;;;;28.87;19.50;;;;;;;11.65;35.02;100594.69;1677563;85;21060;-70
2022/03/24 09:53:32;;;;;;;26.30;19.65;;;;;;;11.71;34.94;100606.48;1682259;84;21266;-71
2022/03/24 09:56:00;;;;;;;25.95;18.60;;;;;;;11.80;35.00;100601.94;1677441;85;21060;-70
2022/03/24 09:58:27;;;;;;;25.20;16.60;;;;;;;11.84;34.84;100605.18;1678048;85;20964;-70
2022/03/24 10:00:56;;;;;;;21.90;16.90;;;;;;;11.85;34.30;100606.81;1676310;85;21020;-70
2022/03/24 10:03:22;;;;;;;20.88;15.70;;;;;;;11.81;34.43;100629.76;1677992;85;21416;-70
2022/03/24 10:06:04;;;;;;;20.95;14.85;;;;;;;11.85;34.30;100616.71;1677244;85;21069;-69
2022/03/24 10:08:32;;;;;;;25.17;19.35;;;;;;;11.87;34.12;100611.88;1682226;84;21060;-70
2022/03/24 10:11:01;;;;;;;32.45;22.35;;;;;;;11.90;34.03;100613.50;1677603;85;21015;-70
2022/03/24 10:13:51;;;;;;;34.20;25.25;;;;;;;11.92;33.87;100603.34;1674276;85;21511;-70
2022/03/24 10:16:43;;;;;;;35.43;25.20;;;;;;;11.94;34.25;100611.09;1673875;85;21599;-71
2022/03/24 10:19:18;;;;;;;33.58;24.85;;;;;;;11.96;33.81;100600.94;1675207;85;21001;-70
2022/03/24 10:21:49;;;;;;;33.48;25.52;;;;;;;11.99;33.70;100607.10;1673161;85;21131;-70
2022/03/24 10:24:21;;;;;;;28.15;21.48;;;;;;;12.00;33.48;100613.25;1678866;85;21068;-70
2022/03/24 10:27:00;;;;;;;29.45;21.23;;;;;;;11.97;33.52;100595.84;1673866;85;21072;-70
2022/03/24 10:29:27;;;;;;;25.40;19.15;;;;;;;12.00;33.69;100612.72;1676418;85;21436;-71
2022/03/24 10:32:00;;;;;;;28.57;20.57;;;;;;;12.03;33.76;100600.14;1677608;85;21567;-70
2022/03/24 10:34:32;;;;;;;28.92;21.27;;;;;;;12.03;33.30;100613.52;1676030;85;21044;-71
2022/03/24 10:37:05;;;;;;;33.02;24.30;;;;;;;12.01;33.44;100608.16;1676960;85;21546;-71
2022/03/24 10:39:37;;;;;;;30.35;22.15;;;;;;;12.01;33.17;100606.82;1677618;85;21102;-70
2022/03/24 10:42:16;;;;;;;32.37;24.23;;;;;;;11.94;33.08;100612.42;1695631;83;21004;-70
2022/03/24 10:45:20;;;;;;;30.90;23.30;;;;;;;11.89;33.29;100623.94;1710523;83;21221;-70
2022/03/24 10:51:45;;;;;;;38.10;26.57;;;;;;;11.92;33.45;100611.91;1656354;84;21024;-69
2022/03/24 10:54:27;;;;;;;26.77;20.90;;;;;;;12.03;33.08;100604.70;1650211;87;21587;-70
2022/03/24 10:56:59;;;;;;;30.75;20.68;;;;;;;12.14;33.15;100602.29;1671225;85;20968;-70
2022/03/24 10:59:33;;;;;;;31.20;21.68;;;;;;;12.25;33.30;100604.47;1677524;85;22097;-70
2022/03/24 11:02:00;;;;;;;28.70;20.82;;;;;;;12.32;33.05;100601.78;1676989;85;21064;-70
2022/03/24 11:04:28;;;;;;;29.75;24.63;;;;;;;12.40;33.26;100612.49;1677570;85;21582;-70
2022/03/24 11:06:55;;;;;;;34.35;25.55;;;;;;;12.44;32.75;100605.55;1676542;85;20965;-70
2022/03/24 11:09:27;;;;;;;31.48;24.75;;;;;;;12.38;32.69;100612.77;1697945;83;78547;-76
2022/03/24 11:12:27;;;;;;;32.00;25.23;;;;;;;12.20;32.50;100609.27;1707944;83;21137;-75
2022/03/24 11:14:59;;;;;;;32.67;25.27;;;;;;;12.00;32.99;100612.72;1693452;84;20963;-75
2022/03/24 11:17:30;;;;;;;30.68;24.92;;;;;;;11.79;33.00;100618.53;1693842;84;21093;-74
2022/03/24 11:20:05;;;;;;;;;;;;;;;11.65;33.30;100617.42;1696375;84;21082;-75
2022/03/24 11:22:58;;;;;;;34.25;25.62;;;;;;;11.60;33.33;100608.03;1693927;84;20608;-73
2022/03/24 11:25:29;;;;;;;34.15;26.02;;;;;;;11.61;33.58;100618.45;1715120;83;21606;-74
2022/03/24 11:27:58;;;;;;;33.05;24.47;;;;;;;11.66;32.74;100613.67;1722457;83;21134;-74